Terminal Aerodrome Forecast
Issued by NWS

Current Version | Previous Version | Text Only | Print | Product List | Glossary On
Versions: 1 2 3 4 5 6 7 8 9 10 11 12 13 14 15 16
000
FTUS43 KMQT 270527
TAFIWD
TAF
KIWD 270527Z 2706/2806 32003KT 1/4SM FG OVC002
     FM271300 36003KT 1SM BR OVC008
     FM271500 01004KT 2SM BR OVC015
     FM271600 01004KT 3SM BR OVC025
     FM271800 36004KT P6SM OVC040
     FM280300 00000KT P6SM SCT090=

USA.gov is the U.S. government's official web portal to all federal, state and local government web resources and services.